createdAt,value
2018-06-22T00:02:11.180Z,13.43
2018-06-22T00:04:39.612Z,6.10
2018-06-22T00:07:08.084Z,16.97
2018-06-22T00:09:36.466Z,14.83
2018-06-22T00:12:04.973Z,7.37
2018-06-22T00:14:33.328Z,8.93
2018-06-22T00:17:01.733Z,10.17
2018-06-22T00:19:30.106Z,6.92
2018-06-22T00:21:58.513Z,16.57
2018-06-22T00:24:26.919Z,10.70
2018-06-22T00:26:55.297Z,9.87
2018-06-22T00:29:23.763Z,5.50
2018-06-22T00:31:52.162Z,8.20
2018-06-22T00:34:20.542Z,17.13
2018-06-22T00:36:48.922Z,11.20
2018-06-22T00:39:17.294Z,10.80
2018-06-22T00:41:45.749Z,12.97
2018-06-22T00:44:14.095Z,7.70
2018-06-22T00:46:42.462Z,8.30
2018-06-22T00:49:10.884Z,6.30
2018-06-22T00:51:39.287Z,9.53
2018-06-22T00:54:12.858Z,7.03
2018-06-22T00:56:41.267Z,14.27
2018-06-22T00:59:09.896Z,10.53
2018-06-22T01:01:38.311Z,13.37
2018-06-22T01:04:07.172Z,7.90
2018-06-22T01:06:35.656Z,8.03
2018-06-22T01:09:05.748Z,11.30
2018-06-22T01:11:34.138Z,7.63
2018-06-22T01:14:02.554Z,15.67
2018-06-22T01:16:30.976Z,6.47
2018-06-22T01:19:00.061Z,10.13
2018-06-22T01:21:28.509Z,11.37
2018-06-22T01:23:56.964Z,7.53
2018-06-22T01:26:26.781Z,10.20
2018-06-22T01:30:00.361Z,10.65
2018-06-22T01:32:28.733Z,9.60
2018-06-22T01:34:57.148Z,7.55
2018-06-22T01:37:25.564Z,9.48
2018-06-22T01:39:53.984Z,9.65
2018-06-22T01:42:22.410Z,10.95
2018-06-22T01:44:50.882Z,10.32
2018-06-22T01:47:19.330Z,13.78
2018-06-22T01:49:47.744Z,12.10
2018-06-22T01:52:16.161Z,9.00
2018-06-22T01:54:44.651Z,11.05
2018-06-22T01:57:17.104Z,8.28
2018-06-22T01:59:45.562Z,11.28
2018-06-22T02:02:13.963Z,13.15
2018-06-22T02:04:42.339Z,6.27
2018-06-22T02:07:10.798Z,10.10
2018-06-22T02:09:39.185Z,10.05
2018-06-22T02:12:07.637Z,14.30
2018-06-22T02:14:36.078Z,7.33
2018-06-22T02:17:04.587Z,14.83
2018-06-22T02:19:33.021Z,16.07
2018-06-22T02:22:01.441Z,8.33
2018-06-22T02:24:29.960Z,7.42
2018-06-22T02:26:58.407Z,14.30
2018-06-22T02:29:26.803Z,11.75
2018-06-22T02:31:55.351Z,15.40
2018-06-22T02:34:23.819Z,7.13
2018-06-22T02:36:52.275Z,9.97
2018-06-22T02:39:20.719Z,10.75
2018-06-22T02:41:49.241Z,12.20
2018-06-22T02:44:17.721Z,7.58
2018-06-22T02:46:46.209Z,12.55
2018-06-22T02:49:14.809Z,19.73
2018-06-22T02:51:43.232Z,8.03
2018-06-22T02:54:11.652Z,14.20
2018-06-22T02:56:40.286Z,13.62
2018-06-22T02:59:09.273Z,6.63
2018-06-22T03:01:37.679Z,12.00
2018-06-22T03:04:06.142Z,14.13
2018-06-22T03:06:34.545Z,9.90
2018-06-22T03:09:03.053Z,12.93
2018-06-22T03:11:31.465Z,12.80
2018-06-22T03:13:59.961Z,15.60
2018-06-22T03:16:28.352Z,14.85
2018-06-22T03:18:56.791Z,10.00
2018-06-22T03:21:25.199Z,11.60
2018-06-22T03:23:53.614Z,12.25
2018-06-22T03:26:22.107Z,11.43
2018-06-22T03:28:51.085Z,13.60
2018-06-22T03:31:19.508Z,9.98
2018-06-22T03:33:47.992Z,11.25
2018-06-22T03:36:16.415Z,6.15
2018-06-22T03:38:44.833Z,12.20
2018-06-22T03:41:13.273Z,6.67
2018-06-22T03:43:41.720Z,7.83
2018-06-22T03:46:10.280Z,7.47
2018-06-22T03:48:38.689Z,11.00
2018-06-22T03:51:07.276Z,13.35
2018-06-22T03:53:35.779Z,13.58
2018-06-22T03:56:04.177Z,8.58
2018-06-22T03:58:32.629Z,22.70
2018-06-22T04:01:01.658Z,6.33
2018-06-22T04:03:30.941Z,13.95
2018-06-22T04:05:59.349Z,12.95
2018-06-22T04:08:27.762Z,14.60
2018-06-22T04:10:56.186Z,16.67
2018-06-22T04:13:24.591Z,10.38
2018-06-22T04:15:52.995Z,15.28
2018-06-22T04:18:21.456Z,12.23
2018-06-22T04:20:49.852Z,9.75
2018-06-22T04:23:18.270Z,11.97
2018-06-22T04:25:46.648Z,10.47
2018-06-22T04:28:15.116Z,12.03
2018-06-22T04:30:43.545Z,12.33
2018-06-22T04:33:12.100Z,8.50
2018-06-22T04:35:40.530Z,12.03
2018-06-22T04:38:08.927Z,10.78
2018-06-22T04:40:37.442Z,15.13
2018-06-22T04:43:05.842Z,7.90
2018-06-22T04:45:34.329Z,10.03
2018-06-22T04:48:02.729Z,10.67
2018-06-22T04:50:31.136Z,12.77
2018-06-22T04:52:59.540Z,15.85
2018-06-22T04:55:27.968Z,11.00
2018-06-22T04:57:56.379Z,21.10
2018-06-22T05:00:24.820Z,9.93
2018-06-22T05:02:53.440Z,9.80
2018-06-22T05:05:22.962Z,6.03
2018-06-22T05:07:51.165Z,8.18
2018-06-22T05:10:19.590Z,18.93
2018-06-22T05:12:48.064Z,9.77
2018-06-22T05:15:16.539Z,8.73
2018-06-22T05:17:45.018Z,13.03
2018-06-22T05:20:13.418Z,10.10
2018-06-22T05:22:41.939Z,9.03
2018-06-22T05:25:10.418Z,7.60
2018-06-22T05:27:38.962Z,14.50
2018-06-22T05:30:07.600Z,9.87
2018-06-22T05:32:36.158Z,7.13
2018-06-22T05:35:05.956Z,8.67
2018-06-22T05:37:34.155Z,14.10
2018-06-22T05:40:02.593Z,6.90
2018-06-22T05:42:30.976Z,7.50
2018-06-22T05:44:59.408Z,16.50
2018-06-22T05:47:27.810Z,7.33
2018-06-22T05:49:56.363Z,8.97
2018-06-22T05:52:24.756Z,18.60
2018-06-22T05:54:53.192Z,9.80
2018-06-22T05:57:21.693Z,8.83
2018-06-22T05:59:50.344Z,9.77
2018-06-22T06:02:19.556Z,10.30
2018-06-22T06:04:48.024Z,10.33
2018-06-22T06:07:16.443Z,11.40
2018-06-22T06:09:44.851Z,15.10
2018-06-22T06:12:13.332Z,13.40
2018-06-22T06:14:41.852Z,14.33
2018-06-22T06:17:10.268Z,14.50
2018-06-22T06:19:38.696Z,11.70
2018-06-22T06:22:07.275Z,15.20
2018-06-22T06:24:35.708Z,7.80
2018-06-22T06:27:04.123Z,18.60
2018-06-22T06:29:32.540Z,16.83
2018-06-22T06:32:01.024Z,12.80
2018-06-22T06:34:29.438Z,11.57
2018-06-22T06:36:57.880Z,11.80
2018-06-22T06:39:26.311Z,14.07
2018-06-22T06:41:54.880Z,11.47
2018-06-22T06:44:23.315Z,12.70
2018-06-22T06:46:51.803Z,8.10
2018-06-22T06:49:20.539Z,6.50
2018-06-22T06:51:48.985Z,14.07
2018-06-22T06:54:17.453Z,17.17
2018-06-22T06:56:45.996Z,12.40
2018-06-22T06:59:14.431Z,11.53
2018-06-22T07:01:42.847Z,12.67
2018-06-22T07:04:11.429Z,9.07
2018-06-22T07:06:39.808Z,8.10
2018-06-22T07:09:08.801Z,14.47
2018-06-22T07:11:37.311Z,16.00
2018-06-22T07:14:05.971Z,10.93
2018-06-22T07:16:34.403Z,15.80
2018-06-22T07:19:02.832Z,8.20
2018-06-22T07:21:31.292Z,9.83
2018-06-22T07:23:59.782Z,15.83
2018-06-22T07:26:28.474Z,11.30
2018-06-22T07:28:56.935Z,13.70
2018-06-22T07:31:25.393Z,14.30
2018-06-22T07:33:54.309Z,14.97
2018-06-22T07:36:22.812Z,12.67
2018-06-22T07:38:51.292Z,15.13
2018-06-22T07:41:19.719Z,11.33
2018-06-22T07:43:48.167Z,20.07
2018-06-22T07:46:16.649Z,13.60
2018-06-22T07:48:45.082Z,15.83
2018-06-22T07:51:13.559Z,17.33
2018-06-22T07:53:41.996Z,11.23
2018-06-22T07:56:10.521Z,10.13
2018-06-22T07:58:38.977Z,13.27
2018-06-22T08:01:07.530Z,13.93
2018-06-22T08:03:36.011Z,11.60
2018-06-22T08:06:04.443Z,17.43
2018-06-22T08:08:32.859Z,11.57
2018-06-22T08:11:01.274Z,10.43
2018-06-22T08:13:29.699Z,10.93
2018-06-22T08:15:58.110Z,11.83
2018-06-22T08:18:26.551Z,15.33
2018-06-22T08:20:55.034Z,11.50
2018-06-22T08:23:23.446Z,11.27
2018-06-22T08:25:51.896Z,15.27
2018-06-22T08:28:20.403Z,17.83
2018-06-22T08:30:49.744Z,13.53
2018-06-22T08:33:18.206Z,15.27
2018-06-22T08:35:49.478Z,11.90
2018-06-22T08:38:17.961Z,11.50
2018-06-22T08:40:46.509Z,12.37
2018-06-22T08:43:14.923Z,17.17
2018-06-22T08:45:43.318Z,9.60
2018-06-22T08:48:11.724Z,10.03
2018-06-22T08:50:40.132Z,12.27
2018-06-22T08:53:08.548Z,17.83
2018-06-22T08:55:37.026Z,12.00
2018-06-22T08:58:05.640Z,19.13
2018-06-22T09:00:34.056Z,12.17
2018-06-22T09:03:02.451Z,17.63
2018-06-22T09:05:30.861Z,15.60
2018-06-22T09:08:00.722Z,16.20
2018-06-22T09:10:29.120Z,11.23
2018-06-22T09:12:57.524Z,10.50
2018-06-22T09:15:25.936Z,8.83
2018-06-22T09:17:54.350Z,14.63
2018-06-22T09:20:22.768Z,13.27
2018-06-22T09:22:51.164Z,12.40
2018-06-22T09:25:19.600Z,10.40
2018-06-22T09:27:48.048Z,12.87
2018-06-22T09:30:16.235Z,10.00
2018-06-22T09:32:44.656Z,11.37
2018-06-22T09:35:13.070Z,14.87
2018-06-22T09:37:41.500Z,11.90
2018-06-22T09:40:09.903Z,23.50
2018-06-22T09:42:38.420Z,19.90
2018-06-22T09:45:06.815Z,10.90
2018-06-22T09:47:35.215Z,11.90
2018-06-22T09:50:03.706Z,12.30
2018-06-22T09:52:32.120Z,10.40
2018-06-22T09:55:00.585Z,15.07
2018-06-22T09:57:28.976Z,15.90
2018-06-22T09:59:57.452Z,15.60
2018-06-22T10:02:25.912Z,21.67
2018-06-22T10:04:54.338Z,15.27
2018-06-22T10:07:23.398Z,15.57
2018-06-22T10:09:51.854Z,11.13
2018-06-22T10:12:20.268Z,15.63
2018-06-22T10:14:48.819Z,14.13
2018-06-22T10:17:17.211Z,10.93
2018-06-22T10:19:45.693Z,11.83
2018-06-22T10:22:14.967Z,15.30
2018-06-22T10:24:43.575Z,16.23
2018-06-22T10:27:12.184Z,12.87
2018-06-22T10:29:40.629Z,15.77
2018-06-22T10:32:10.109Z,11.80
2018-06-22T10:34:38.215Z,19.33
2018-06-22T10:37:06.650Z,7.57
2018-06-22T10:39:35.430Z,12.80
2018-06-22T10:42:04.000Z,14.17
2018-06-22T10:44:32.490Z,14.13
2018-06-22T10:47:01.154Z,14.63
2018-06-22T10:49:29.650Z,12.47
2018-06-22T10:51:58.300Z,11.07
2018-06-22T10:54:26.805Z,10.67
2018-06-22T10:56:55.303Z,20.60
2018-06-22T10:59:23.906Z,18.93
2018-06-22T11:01:52.353Z,11.90
2018-06-22T11:04:21.100Z,9.23
2018-06-22T11:06:49.522Z,18.83
2018-06-22T11:09:17.984Z,17.53
2018-06-22T11:11:46.947Z,10.40
2018-06-22T11:14:15.434Z,20.73
2018-06-22T11:16:44.827Z,11.73
2018-06-22T11:19:13.296Z,16.73
2018-06-22T11:21:41.913Z,15.37
2018-06-22T11:24:10.412Z,15.30
2018-06-22T11:26:39.070Z,16.67
2018-06-22T11:29:07.547Z,11.90
2018-06-22T11:31:35.956Z,13.30
2018-06-22T11:34:04.507Z,11.90
2018-06-22T11:36:32.936Z,12.40
2018-06-22T11:39:01.450Z,11.40
2018-06-22T11:41:29.857Z,11.37
2018-06-22T11:43:58.304Z,9.27
2018-06-22T11:46:26.709Z,14.13
2018-06-22T11:48:55.157Z,12.33
2018-06-22T11:51:24.545Z,11.10
2018-06-22T11:53:53.299Z,8.60
2018-06-22T11:56:21.861Z,9.40
2018-06-22T11:58:50.348Z,13.33
2018-06-22T12:01:19.129Z,8.80
2018-06-22T12:03:48.659Z,11.37
2018-06-22T12:06:17.141Z,7.57
2018-06-22T12:08:45.551Z,28.73
2018-06-22T12:11:14.389Z,57.07
2018-06-22T12:13:42.896Z,144.87
2018-06-22T12:16:11.799Z,193.70
2018-06-22T12:18:40.831Z,308.80
2018-06-22T12:21:09.201Z,107.00
2018-06-22T12:23:37.857Z,394.17
2018-06-22T12:26:06.705Z,358.87
2018-06-22T12:28:35.417Z,627.90
2018-06-22T12:31:03.959Z,228.97
2018-06-22T12:33:32.229Z,187.57
2018-06-22T12:36:00.671Z,398.57
2018-06-22T12:38:29.307Z,247.20
2018-06-22T12:40:57.759Z,25.87
2018-06-22T12:43:26.251Z,97.17
2018-06-22T12:45:54.843Z,39.30
2018-06-22T12:48:23.266Z,43.10
2018-06-22T12:50:51.683Z,58.57
2018-06-22T12:53:20.221Z,17.70
2018-06-22T12:55:48.674Z,26.97
2018-06-22T12:58:17.111Z,16.40
2018-06-22T13:00:45.270Z,28.27
2018-06-22T13:03:13.684Z,14.07
2018-06-22T13:05:42.139Z,13.10
2018-06-22T13:08:10.694Z,35.90
2018-06-22T13:10:39.092Z,26.47
2018-06-22T13:13:07.680Z,28.10
2018-06-22T13:15:36.129Z,33.33
2018-06-22T13:18:04.774Z,29.53
2018-06-22T13:20:33.214Z,34.63
2018-06-22T13:23:01.653Z,11.73
2018-06-22T13:25:30.137Z,30.13
2018-06-22T13:27:58.652Z,19.63
2018-06-22T13:30:27.152Z,14.00
2018-06-22T13:32:55.623Z,20.47
2018-06-22T13:35:24.041Z,16.60
2018-06-22T13:37:52.588Z,20.97
2018-06-22T13:40:21.000Z,21.27
2018-06-22T13:42:49.301Z,17.60
2018-06-22T13:45:17.760Z,12.50
2018-06-22T13:47:46.256Z,17.23
2018-06-22T13:50:14.912Z,23.07
2018-06-22T13:52:43.372Z,12.20
2018-06-22T13:55:11.942Z,11.90
2018-06-22T13:57:40.426Z,15.47
2018-06-22T14:00:08.925Z,13.43
2018-06-22T14:02:37.649Z,13.30
2018-06-22T14:05:11.556Z,12.30
2018-06-22T14:07:40.032Z,14.03
2018-06-22T14:10:08.795Z,15.67
2018-06-22T14:12:37.248Z,12.30
2018-06-22T14:15:05.894Z,10.67
2018-06-22T14:17:34.300Z,15.83
2018-06-22T14:20:02.821Z,13.77
2018-06-22T14:22:31.271Z,13.30
2018-06-22T14:25:00.703Z,6.47
2018-06-22T14:27:29.183Z,17.93
2018-06-22T14:29:58.286Z,12.50
2018-06-22T14:32:28.563Z,12.43
2018-06-22T14:34:57.741Z,9.80
2018-06-22T14:37:26.602Z,12.40
2018-06-22T14:39:55.189Z,10.40
2018-06-22T14:42:23.651Z,7.90
2018-06-22T14:44:53.433Z,9.73
2018-06-22T14:47:22.147Z,9.90
2018-06-22T14:49:50.595Z,14.00
2018-06-22T14:52:19.137Z,8.77
2018-06-22T14:54:52.998Z,7.53
2018-06-22T14:57:26.889Z,7.23
2018-06-22T15:00:00.777Z,5.27
2018-06-22T15:02:34.629Z,12.03
2018-06-22T15:05:08.360Z,8.90
2018-06-22T15:07:42.131Z,7.07
2018-06-22T15:10:10.789Z,7.40
2018-06-22T15:12:40.200Z,8.30
2018-06-22T15:15:08.684Z,6.37
2018-06-22T15:17:42.545Z,5.87
2018-06-22T15:20:11.150Z,8.53
2018-06-22T15:22:39.750Z,5.67
2018-06-22T15:25:08.512Z,7.57
2018-06-22T15:27:38.433Z,7.80
2018-06-22T15:30:06.913Z,5.50
2018-06-22T15:32:35.605Z,6.23
2018-06-22T15:35:09.714Z,7.77
2018-06-22T15:37:43.485Z,11.07
2018-06-22T15:40:17.256Z,6.23
2018-06-22T15:42:51.324Z,9.67
2018-06-22T15:45:27.546Z,8.77
2018-06-22T15:48:02.170Z,6.97
2018-06-22T15:50:36.000Z,6.40
2018-06-22T15:53:10.028Z,10.03
2018-06-22T15:55:42.563Z,7.83
2018-06-22T15:58:11.220Z,7.30
2018-06-22T16:00:39.986Z,4.53
2018-06-22T16:03:14.828Z,5.20
2018-06-22T16:05:43.356Z,4.70
2018-06-22T16:08:11.923Z,4.33
2018-06-22T16:10:40.444Z,5.93
2018-06-22T16:13:14.733Z,7.43
2018-06-22T16:15:48.567Z,5.20
2018-06-22T16:18:22.343Z,6.60
2018-06-22T16:20:56.129Z,5.03
2018-06-22T16:23:30.093Z,16.70
2018-06-22T16:26:03.837Z,4.60
2018-06-22T16:28:32.287Z,6.13
2018-06-22T16:31:00.877Z,6.00
2018-06-22T16:33:29.334Z,8.10
2018-06-22T16:35:57.904Z,6.10
2018-06-22T16:38:26.482Z,9.70
2018-06-22T16:40:54.581Z,5.50
2018-06-22T16:43:23.042Z,7.00
2018-06-22T16:45:51.653Z,6.70
2018-06-22T16:48:20.131Z,7.10
2018-06-22T16:50:48.547Z,10.90
2018-06-22T16:53:18.460Z,7.43
2018-06-22T16:55:46.919Z,8.47
2018-06-22T16:58:20.823Z,5.37
2018-06-22T17:00:49.241Z,8.80
2018-06-22T17:03:17.662Z,4.57
2018-06-22T17:05:46.129Z,9.37
2018-06-22T17:09:18.646Z,6.33
2018-06-22T17:12:55.213Z,5.97
2018-06-22T17:15:28.883Z,8.87
2018-06-22T17:18:02.666Z,9.73
2018-06-22T17:20:31.319Z,10.70
2018-06-22T17:22:59.790Z,9.07
2018-06-22T17:25:28.880Z,6.70
2018-06-22T17:27:57.692Z,6.40
2018-06-22T17:30:26.168Z,6.67
2018-06-22T17:32:54.560Z,6.37
2018-06-22T17:35:23.061Z,7.30
2018-06-22T17:37:51.528Z,5.90
2018-06-22T17:40:20.056Z,7.63
2018-06-22T17:42:48.512Z,5.53
2018-06-22T17:45:17.951Z,6.93
2018-06-22T17:47:46.433Z,7.53
2018-06-22T17:50:20.148Z,6.77
2018-06-22T17:52:48.672Z,4.83
2018-06-22T17:55:17.148Z,9.93
2018-06-22T17:57:45.560Z,11.57
2018-06-22T18:00:19.337Z,8.70
2018-06-22T18:02:54.249Z,9.50
2018-06-22T18:05:28.069Z,8.40
2018-06-22T18:07:57.390Z,5.23
2018-06-22T18:10:31.249Z,7.50
2018-06-22T18:13:00.612Z,10.87
2018-06-22T18:15:29.793Z,11.27
2018-06-22T18:18:07.090Z,8.00
2018-06-22T18:20:39.925Z,7.77
2018-06-22T18:23:09.049Z,6.10
2018-06-22T18:25:37.896Z,9.30
2018-06-22T18:28:06.451Z,5.80
2018-06-22T18:30:35.017Z,9.13
2018-06-22T18:33:03.840Z,7.23
2018-06-22T18:35:32.196Z,8.93
2018-06-22T18:38:00.638Z,9.10
2018-06-22T18:40:29.079Z,7.03
2018-06-22T18:42:57.520Z,9.43
2018-06-22T18:45:25.949Z,7.70
2018-06-22T18:47:55.485Z,7.57
2018-06-22T18:50:24.892Z,10.63
2018-06-22T18:52:58.898Z,8.70
2018-06-22T18:55:32.786Z,14.50
2018-06-22T18:58:06.623Z,11.90
2018-06-22T19:00:40.394Z,10.77
2018-06-22T19:03:14.213Z,13.03
2018-06-22T19:05:43.752Z,59.83
2018-06-22T19:08:12.500Z,12.43
2018-06-22T19:10:40.967Z,18.93
2018-06-22T19:13:10.369Z,16.70
2018-06-22T19:15:39.019Z,10.97
2018-06-22T19:18:07.449Z,16.27
2018-06-22T19:20:36.031Z,16.03
2018-06-22T19:23:05.283Z,17.17
2018-06-22T19:25:33.717Z,12.60
2018-06-22T19:28:02.381Z,25.50
2018-06-22T19:30:30.878Z,13.03
2018-06-22T19:33:00.423Z,9.27
2018-06-22T19:35:28.954Z,17.77
2018-06-22T19:37:57.447Z,21.23
2018-06-22T19:40:25.903Z,15.07
2018-06-22T19:42:54.345Z,20.60
2018-06-22T19:45:28.274Z,23.97
2018-06-22T19:48:02.273Z,21.23
2018-06-22T19:50:36.100Z,18.03
2018-06-22T19:53:10.051Z,32.40
2018-06-22T19:55:38.538Z,17.27
2018-06-22T19:58:07.216Z,19.27
2018-06-22T20:00:35.674Z,20.47
2018-06-22T20:03:04.270Z,11.00
2018-06-22T20:05:32.893Z,13.50
2018-06-22T20:08:01.479Z,16.60
2018-06-22T20:10:29.921Z,18.70
2018-06-22T20:12:58.410Z,12.90
2018-06-22T20:15:26.567Z,23.07
2018-06-22T20:17:55.801Z,13.23
2018-06-22T20:20:24.402Z,12.97
2018-06-22T20:22:53.503Z,7.33
2018-06-22T20:25:27.834Z,21.17
2018-06-22T20:27:56.360Z,12.67
2018-06-22T20:30:24.489Z,14.63
2018-06-22T20:32:53.072Z,17.40
2018-06-22T20:35:26.731Z,12.80
2018-06-22T20:38:00.443Z,11.57
2018-06-22T20:40:34.189Z,13.93
2018-06-22T20:44:06.760Z,12.20
2018-06-22T20:46:40.757Z,12.33
2018-06-22T20:49:14.604Z,25.93
2018-06-22T20:51:44.752Z,14.37
2018-06-22T20:54:14.048Z,16.47
2018-06-22T20:56:42.598Z,18.60
2018-06-22T20:59:11.028Z,11.97
2018-06-22T21:01:39.526Z,30.63
2018-06-22T21:04:08.014Z,19.27
2018-06-22T21:06:36.626Z,17.17
2018-06-22T21:09:07.230Z,14.97
2018-06-22T21:11:35.632Z,20.60
2018-06-22T21:14:04.283Z,19.00
2018-06-22T21:16:32.733Z,12.27
2018-06-22T21:19:01.241Z,16.23
2018-06-22T21:21:35.130Z,23.93
2018-06-22T21:24:03.614Z,11.40
2018-06-22T21:26:32.147Z,13.70
2018-06-22T21:29:06.048Z,14.33
2018-06-22T21:31:39.905Z,13.53
2018-06-22T21:34:13.856Z,16.43
2018-06-22T21:36:47.708Z,20.50
2018-06-22T21:39:16.201Z,21.13
2018-06-22T21:41:44.646Z,14.80
2018-06-22T21:44:13.345Z,16.03
2018-06-22T21:46:41.850Z,11.77
2018-06-22T21:49:10.060Z,18.00
2018-06-22T21:51:38.609Z,15.17
2018-06-22T21:54:07.093Z,15.13
2018-06-22T21:56:35.549Z,14.00
2018-06-22T21:59:04.160Z,11.40
2018-06-22T22:01:32.625Z,13.33
2018-06-22T22:04:01.155Z,19.23
2018-06-22T22:06:29.705Z,16.53
2018-06-22T22:08:58.381Z,23.13
2018-06-22T22:11:32.076Z,16.90
2018-06-22T22:14:00.487Z,21.20
2018-06-22T22:16:28.966Z,20.33
2018-06-22T22:18:57.450Z,17.30
2018-06-22T22:21:26.430Z,18.07
2018-06-22T22:23:55.058Z,20.20
2018-06-22T22:26:23.515Z,27.57
2018-06-22T22:28:52.090Z,18.77
2018-06-22T22:31:20.572Z,20.07
2018-06-22T22:33:49.123Z,25.87
2018-06-22T22:36:17.739Z,18.00
2018-06-22T22:38:46.325Z,21.20
2018-06-22T22:41:14.725Z,23.20
2018-06-22T22:43:43.193Z,18.00
2018-06-22T22:46:11.815Z,25.83
2018-06-22T22:48:40.401Z,19.43
2018-06-22T22:51:08.874Z,17.87
2018-06-22T22:53:37.307Z,16.93
2018-06-22T22:56:05.949Z,15.83
2018-06-22T22:58:34.474Z,23.50
2018-06-22T23:01:02.879Z,20.10
2018-06-22T23:03:31.507Z,17.53
2018-06-22T23:05:59.989Z,25.03
2018-06-22T23:08:28.777Z,20.20
2018-06-22T23:10:57.222Z,23.17
2018-06-22T23:13:25.803Z,23.57
2018-06-22T23:15:54.275Z,20.27
2018-06-22T23:18:22.714Z,19.40
2018-06-22T23:20:51.375Z,30.87
2018-06-22T23:23:30.708Z,25.17
2018-06-22T23:25:59.319Z,26.40
2018-06-22T23:28:27.921Z,18.40
2018-06-22T23:30:56.446Z,17.90
2018-06-22T23:33:25.034Z,20.97
2018-06-22T23:35:53.537Z,24.10
2018-06-22T23:38:21.946Z,23.93
2018-06-22T23:40:50.417Z,23.43
2018-06-22T23:43:19.166Z,24.57
2018-06-22T23:45:47.996Z,21.50
2018-06-22T23:48:16.476Z,20.23
2018-06-22T23:50:44.926Z,24.97
2018-06-22T23:53:13.408Z,21.77
2018-06-22T23:55:42.200Z,18.50
2018-06-22T23:58:10.870Z,23.70
